Chatham, Canada
Current Conditions -  °F | °C
As of 3:00 AM on Friday 28 Nov 2014 (Local Time) from CZBF Reporting Station
Few Clouds Few Clouds  
Wind Chill:   Ceiling: Unl
Heat Index: 16°   Visibility: 15mi
Dew Point: 10°   Wind: 7mph
Humidity: 79%   Direction: 310°NW
Pressure: 30"   Gusts: NA
Location:  47.03°N, 65.43°W
Report Text: CZBF 280700Z 31006KT 15SM FEW050 FEW120 M09/M12 A3000 RMK SC1AC2 SC TR SLP161
Loading
Personal Weather Stations






























Interactive Weather Map New forecast layout! Learn more

10-Day Weather Forecast

Advertisements
Track Severe Weather on mobile